sensor_id;sensor_type;location;lat;lon;timestamp;P1;durP1;ratioP1;P2;durP2;ratioP2
40629;SDS011;26329;40.388;-3.710;2022-07-21T00:09:13;9.18;;;1.92;;
40629;SDS011;26329;40.388;-3.710;2022-07-21T00:19:16;9.68;;;1.27;;
40629;SDS011;26329;40.388;-3.710;2022-07-21T00:29:18;9.18;;;1.67;;
40629;SDS011;26329;40.388;-3.710;2022-07-21T00:39:20;7.20;;;1.15;;
40629;SDS011;26329;40.388;-3.710;2022-07-21T00:49:21;8.82;;;0.63;;
40629;SDS011;26329;40.388;-3.710;2022-07-21T00:59:23;7.80;;;0.60;;
40629;SDS011;26329;40.388;-3.710;2022-07-21T01:09:25;8.90;;;1.05;;
40629;SDS011;26329;40.388;-3.710;2022-07-21T01:19:29;2.92;;;0.90;;
40629;SDS011;26329;40.388;-3.710;2022-07-21T01:29:32;10.27;;;1.08;;
40629;SDS011;26329;40.388;-3.710;2022-07-21T01:39:36;8.60;;;0.90;;
40629;SDS011;26329;40.388;-3.710;2022-07-21T01:50:00;4.80;;;0.50;;
40629;SDS011;26329;40.388;-3.710;2022-07-21T02:00:04;7.57;;;0.65;;
40629;SDS011;26329;40.388;-3.710;2022-07-21T02:10:07;3.38;;;0.50;;
40629;SDS011;26329;40.388;-3.710;2022-07-21T02:20:11;6.93;;;0.45;;
40629;SDS011;26329;40.388;-3.710;2022-07-21T02:30:14;5.85;;;0.63;;
40629;SDS011;26329;40.388;-3.710;2022-07-21T02:40:17;4.75;;;0.45;;
40629;SDS011;26329;40.388;-3.710;2022-07-21T02:50:20;2.55;;;0.30;;
40629;SDS011;26329;40.388;-3.710;2022-07-21T03:00:23;4.07;;;0.45;;
40629;SDS011;26329;40.388;-3.710;2022-07-21T03:10:26;1.70;;;0.60;;
40629;SDS011;26329;40.388;-3.710;2022-07-21T03:20:30;3.50;;;0.30;;
40629;SDS011;26329;40.388;-3.710;2022-07-21T03:30:36;4.72;;;0.20;;
40629;SDS011;26329;40.388;-3.710;2022-07-21T03:40:38;6.82;;;0.88;;
40629;SDS011;26329;40.388;-3.710;2022-07-21T03:50:41;6.13;;;0.73;;
40629;SDS011;26329;40.388;-3.710;2022-07-21T04:00:44;7.50;;;0.40;;
40629;SDS011;26329;40.388;-3.710;2022-07-21T04:10:49;4.60;;;0.70;;
40629;SDS011;26329;40.388;-3.710;2022-07-21T04:20:54;5.00;;;1.30;;
40629;SDS011;26329;40.388;-3.710;2022-07-21T04:30:58;2.58;;;1.13;;
40629;SDS011;26329;40.388;-3.710;2022-07-21T04:41:01;3.00;;;1.40;;
40629;SDS011;26329;40.388;-3.710;2022-07-21T04:51:11;4.47;;;2.22;;
40629;SDS011;26329;40.388;-3.710;2022-07-21T05:01:14;10.45;;;3.08;;
40629;SDS011;26329;40.388;-3.710;2022-07-21T05:11:23;5.95;;;2.92;;
40629;SDS011;26329;40.388;-3.710;2022-07-21T05:21:45;7.18;;;2.47;;
40629;SDS011;26329;40.388;-3.710;2022-07-21T05:32:07;9.13;;;2.72;;
40629;SDS011;26329;40.388;-3.710;2022-07-21T05:42:22;6.22;;;2.40;;
40629;SDS011;26329;40.388;-3.710;2022-07-21T05:52:27;6.70;;;2.28;;
40629;SDS011;26329;40.388;-3.710;2022-07-21T06:02:32;9.05;;;2.45;;
40629;SDS011;26329;40.388;-3.710;2022-07-21T06:12:35;10.27;;;2.70;;
40629;SDS011;26329;40.388;-3.710;2022-07-21T06:22:38;7.03;;;2.08;;
40629;SDS011;26329;40.388;-3.710;2022-07-21T06:32:40;7.70;;;2.35;;
40629;SDS011;26329;40.388;-3.710;2022-07-21T06:42:43;9.77;;;1.98;;
40629;SDS011;26329;40.388;-3.710;2022-07-21T06:52:45;7.90;;;1.90;;
40629;SDS011;26329;40.388;-3.710;2022-07-21T07:02:47;13.18;;;2.45;;
40629;SDS011;26329;40.388;-3.710;2022-07-21T07:12:49;4.32;;;1.80;;
40629;SDS011;26329;40.388;-3.710;2022-07-21T07:22:51;6.38;;;2.00;;
40629;SDS011;26329;40.388;-3.710;2022-07-21T07:32:52;15.40;;;2.50;;
40629;SDS011;26329;40.388;-3.710;2022-07-21T07:42:54;8.77;;;1.90;;
40629;SDS011;26329;40.388;-3.710;2022-07-21T07:52:57;5.60;;;0.90;;
40629;SDS011;26329;40.388;-3.710;2022-07-21T08:03:00;4.93;;;0.63;;
40629;SDS011;26329;40.388;-3.710;2022-07-21T08:13:02;2.60;;;0.63;;
40629;SDS011;26329;40.388;-3.710;2022-07-21T08:23:05;5.85;;;0.55;;
40629;SDS011;26329;40.388;-3.710;2022-07-21T08:33:07;3.60;;;0.55;;
40629;SDS011;26329;40.388;-3.710;2022-07-21T08:43:10;5.75;;;0.50;;
40629;SDS011;26329;40.388;-3.710;2022-07-21T08:53:14;1.35;;;0.20;;
40629;SDS011;26329;40.388;-3.710;2022-07-21T09:03:17;10.00;;;0.60;;
40629;SDS011;26329;40.388;-3.710;2022-07-21T09:13:19;10.90;;;0.60;;
40629;SDS011;26329;40.388;-3.710;2022-07-21T09:23:22;32.80;;;2.03;;
40629;SDS011;26329;40.388;-3.710;2022-07-21T09:43:34;10.60;;;0.85;;
40629;SDS011;26329;40.388;-3.710;2022-07-21T09:53:49;11.07;;;0.90;;
40629;SDS011;26329;40.388;-3.710;2022-07-21T10:03:52;3.50;;;0.68;;
40629;SDS011;26329;40.388;-3.710;2022-07-21T10:13:55;6.07;;;0.40;;
40629;SDS011;26329;40.388;-3.710;2022-07-21T10:23:57;6.07;;;0.50;;
40629;SDS011;26329;40.388;-3.710;2022-07-21T10:34:00;5.68;;;0.40;;
40629;SDS011;26329;40.388;-3.710;2022-07-21T10:44:36;9.38;;;0.77;;
40629;SDS011;26329;40.388;-3.710;2022-07-21T10:54:26;4.63;;;0.60;;
40629;SDS011;26329;40.388;-3.710;2022-07-21T11:04:28;9.30;;;0.40;;
40629;SDS011;26329;40.388;-3.710;2022-07-21T11:14:40;6.55;;;0.75;;
40629;SDS011;26329;40.388;-3.710;2022-07-21T11:24:50;8.80;;;0.68;;
40629;SDS011;26329;40.388;-3.710;2022-07-21T11:34:54;8.48;;;0.77;;
40629;SDS011;26329;40.388;-3.710;2022-07-21T11:44:57;6.63;;;0.88;;
40629;SDS011;26329;40.388;-3.710;2022-07-21T11:55:00;10.20;;;0.80;;
40629;SDS011;26329;40.388;-3.710;2022-07-21T12:05:05;7.60;;;0.90;;
40629;SDS011;26329;40.388;-3.710;2022-07-21T12:25:31;7.72;;;1.08;;
40629;SDS011;26329;40.388;-3.710;2022-07-21T12:35:36;7.28;;;0.52;;
40629;SDS011;26329;40.388;-3.710;2022-07-21T12:55:50;6.10;;;0.70;;
40629;SDS011;26329;40.388;-3.710;2022-07-21T13:05:52;2.13;;;0.28;;
40629;SDS011;26329;40.388;-3.710;2022-07-21T13:15:55;4.63;;;0.50;;
40629;SDS011;26329;40.388;-3.710;2022-07-21T13:25:58;8.95;;;0.85;;
40629;SDS011;26329;40.388;-3.710;2022-07-21T13:36:00;5.60;;;0.68;;
40629;SDS011;26329;40.388;-3.710;2022-07-21T13:46:02;6.00;;;0.30;;
40629;SDS011;26329;40.388;-3.710;2022-07-21T13:56:05;5.47;;;0.68;;
40629;SDS011;26329;40.388;-3.710;2022-07-21T14:06:08;5.82;;;0.85;;
40629;SDS011;26329;40.388;-3.710;2022-07-21T14:16:11;6.25;;;0.63;;
40629;SDS011;26329;40.388;-3.710;2022-07-21T14:26:13;5.30;;;0.68;;
40629;SDS011;26329;40.388;-3.710;2022-07-21T14:36:15;7.57;;;0.95;;
40629;SDS011;26329;40.388;-3.710;2022-07-21T14:46:17;8.57;;;0.73;;
40629;SDS011;26329;40.388;-3.710;2022-07-21T14:56:19;2.42;;;0.30;;
40629;SDS011;26329;40.388;-3.710;2022-07-21T15:06:22;4.15;;;0.70;;
40629;SDS011;26329;40.388;-3.710;2022-07-21T15:16:24;1.83;;;0.45;;
40629;SDS011;26329;40.388;-3.710;2022-07-21T15:26:26;6.47;;;0.57;;
40629;SDS011;26329;40.388;-3.710;2022-07-21T15:36:29;9.45;;;0.90;;
40629;SDS011;26329;40.388;-3.710;2022-07-21T15:46:32;4.05;;;0.52;;
40629;SDS011;26329;40.388;-3.710;2022-07-21T15:56:34;4.88;;;0.50;;
40629;SDS011;26329;40.388;-3.710;2022-07-21T16:06:36;5.50;;;0.55;;
40629;SDS011;26329;40.388;-3.710;2022-07-21T16:16:40;7.65;;;0.93;;
40629;SDS011;26329;40.388;-3.710;2022-07-21T16:26:42;2.17;;;0.75;;
40629;SDS011;26329;40.388;-3.710;2022-07-21T16:36:44;1.35;;;0.50;;
40629;SDS011;26329;40.388;-3.710;2022-07-21T16:46:46;3.88;;;0.93;;
40629;SDS011;26329;40.388;-3.710;2022-07-21T16:56:48;8.15;;;0.75;;
40629;SDS011;26329;40.388;-3.710;2022-07-21T17:06:50;5.57;;;0.38;;
40629;SDS011;26329;40.388;-3.710;2022-07-21T17:16:52;5.32;;;1.00;;
40629;SDS011;26329;40.388;-3.710;2022-07-21T17:26:54;7.53;;;3.15;;
40629;SDS011;26329;40.388;-3.710;2022-07-21T17:36:56;5.78;;;0.82;;
40629;SDS011;26329;40.388;-3.710;2022-07-21T17:46:58;8.35;;;1.95;;
40629;SDS011;26329;40.388;-3.710;2022-07-21T17:57:00;5.05;;;1.05;;
40629;SDS011;26329;40.388;-3.710;2022-07-21T18:07:20;5.80;;;1.00;;
40629;SDS011;26329;40.388;-3.710;2022-07-21T18:17:22;1.80;;;0.40;;
40629;SDS011;26329;40.388;-3.710;2022-07-21T18:27:23;2.45;;;0.73;;
40629;SDS011;26329;40.388;-3.710;2022-07-21T18:37:26;3.35;;;1.30;;
40629;SDS011;26329;40.388;-3.710;2022-07-21T18:47:27;8.48;;;1.20;;
40629;SDS011;26329;40.388;-3.710;2022-07-21T18:57:29;5.07;;;0.60;;
40629;SDS011;26329;40.388;-3.710;2022-07-21T19:07:30;5.05;;;0.93;;
40629;SDS011;26329;40.388;-3.710;2022-07-21T19:17:32;8.90;;;1.55;;
40629;SDS011;26329;40.388;-3.710;2022-07-21T19:27:34;3.72;;;1.10;;
40629;SDS011;26329;40.388;-3.710;2022-07-21T19:37:36;10.55;;;2.25;;
40629;SDS011;26329;40.388;-3.710;2022-07-21T19:47:38;3.55;;;0.88;;
40629;SDS011;26329;40.388;-3.710;2022-07-21T19:57:40;4.72;;;1.70;;
40629;SDS011;26329;40.388;-3.710;2022-07-21T20:07:42;9.27;;;1.27;;
40629;SDS011;26329;40.388;-3.710;2022-07-21T20:17:44;9.77;;;1.65;;
40629;SDS011;26329;40.388;-3.710;2022-07-21T20:27:46;2.95;;;1.70;;
40629;SDS011;26329;40.388;-3.710;2022-07-21T20:37:49;8.77;;;2.20;;
40629;SDS011;26329;40.388;-3.710;2022-07-21T20:47:51;5.47;;;2.95;;
40629;SDS011;26329;40.388;-3.710;2022-07-21T20:57:54;9.93;;;3.65;;
40629;SDS011;26329;40.388;-3.710;2022-07-21T21:07:55;13.07;;;6.22;;
40629;SDS011;26329;40.388;-3.710;2022-07-21T21:17:57;15.82;;;6.43;;
40629;SDS011;26329;40.388;-3.710;2022-07-21T21:27:59;16.35;;;9.20;;
40629;SDS011;26329;40.388;-3.710;2022-07-21T21:38:01;13.07;;;4.95;;
40629;SDS011;26329;40.388;-3.710;2022-07-21T21:48:03;6.05;;;3.05;;
40629;SDS011;26329;40.388;-3.710;2022-07-21T21:58:06;18.33;;;3.35;;
40629;SDS011;26329;40.388;-3.710;2022-07-21T22:08:08;8.48;;;1.50;;
40629;SDS011;26329;40.388;-3.710;2022-07-21T22:18:11;24.40;;;2.95;;
40629;SDS011;26329;40.388;-3.710;2022-07-21T22:28:14;9.73;;;1.40;;
40629;SDS011;26329;40.388;-3.710;2022-07-21T22:38:16;13.38;;;1.95;;
40629;SDS011;26329;40.388;-3.710;2022-07-21T22:48:18;4.95;;;1.92;;
40629;SDS011;26329;40.388;-3.710;2022-07-21T22:58:19;7.55;;;2.28;;
40629;SDS011;26329;40.388;-3.710;2022-07-21T23:08:21;9.55;;;2.85;;
40629;SDS011;26329;40.388;-3.710;2022-07-21T23:18:23;14.20;;;0.98;;
40629;SDS011;26329;40.388;-3.710;2022-07-21T23:28:25;11.10;;;1.15;;
40629;SDS011;26329;40.388;-3.710;2022-07-21T23:38:27;11.07;;;1.27;;
40629;SDS011;26329;40.388;-3.710;2022-07-21T23:48:29;12.40;;;1.35;;
40629;SDS011;26329;40.388;-3.710;2022-07-21T23:58:31;9.00;;;1.20;;
